nws-alerts: Checking more than four warning/county codes can delay the loading of your pages. You should use a cron job to get the data.
EllijayWeather Station Historical Data
Daily Summary for August 20, 2019 Units:  English    Metric   Both
Daily Weekly Monthly Yearly Custom
  High: Low: Average:
Temperature: 87.6 °F 63.5 °F 75.1 °F
Dew Point: 74.7 °F 62.6 °F 68.4 °F
Humidity: 98% 56% 82%
Wind Speed: 4mph 0mph 0mph
Wind Gust: 6mph - -
Wind- - WNW
Pressure: 30.15 in 30.03 in -
Precipitation: 0 in    
Historical Graphs
 
 
Tabular Data for August 20, 2019
Time Temperature Dew Point Pressure Wind Wind Speed Wind Gust Humidity Rainfall Rate (Hourly) solar
00:00 67.6 °F 66.2 °F 30.11 in Calm     95% 0 in meteobridge W/m2
00:05 67.6 °F 66.2 °F 30.11 in Calm     95% 0 in meteobridge W/m2
00:10 67.6 °F 66.2 °F 30.11 in Calm     95% 0 in meteobridge W/m2
00:15 67.5 °F 66 °F 30.11 in Calm     95% 0 in meteobridge W/m2
00:20 67.5 °F 66 °F 30.11 in Calm     95% 0 in meteobridge W/m2
00:25 67.5 °F 66 °F 30.11 in Calm     95% 0 in meteobridge W/m2
00:30 67.3 °F 65.8 °F 30.11 in Calm     95% 0 in meteobridge W/m2
00:35 67.1 °F 65.7 °F 30.11 in Calm     95% 0 in meteobridge W/m2
00:40 67.1 °F 65.8 °F 30.11 in Calm     96% 0 in meteobridge W/m2
00:45 66.9 °F 65.7 °F 30.11 in Calm     96% 0 in meteobridge W/m2
00:50 66.9 °F 65.7 °F 30.11 in Calm     96% 0 in meteobridge W/m2
00:55 66.9 °F 65.7 °F 30.11 in Calm     96% 0 in meteobridge W/m2
01:00 66.7 °F 65.5 °F 30.11 in Calm     96% 0 in meteobridge W/m2
01:05 66.7 °F 65.5 °F 30.11 in Calm     96% 0 in meteobridge W/m2
01:10 66.7 °F 65.5 °F 30.10 in Calm     96% 0 in meteobridge W/m2
01:15 66.6 °F 65.3 °F 30.11 in Calm     96% 0 in meteobridge W/m2
01:20 66.6 °F 65.3 °F 30.11 in Calm     96% 0 in meteobridge W/m2
01:25 66.6 °F 65.3 °F 30.10 in Calm     96% 0 in meteobridge W/m2
01:30 66.6 °F 65.3 °F 30.10 in Calm     96% 0 in meteobridge W/m2
01:35 66.6 °F 65.3 °F 30.10 in Calm     96% 0 in meteobridge W/m2
01:40 66.4 °F 65.1 °F 30.10 in Calm     96% 0 in meteobridge W/m2
01:45 66.4 °F 65.1 °F 30.10 in Calm     96% 0 in meteobridge W/m2
01:50 66.4 °F 65.1 °F 30.10 in Calm     96% 0 in meteobridge W/m2
01:55 66.2 °F 65.3 °F 30.10 in Calm     97% 0 in meteobridge W/m2
02:00 66.2 °F 65.3 °F 30.10 in Calm     97% 0 in meteobridge W/m2
02:05 66.4 °F 65.5 °F 30.10 in Calm     97% 0 in meteobridge W/m2
02:10 66.4 °F 65.5 °F 30.10 in Calm     97% 0 in meteobridge W/m2
02:15 66.4 °F 65.5 °F 30.10 in Calm     97% 0 in meteobridge W/m2
02:20 66.4 °F 65.5 °F 30.10 in Calm     97% 0 in meteobridge W/m2
02:25 66.4 °F 65.5 °F 30.09 in Calm     97% 0 in meteobridge W/m2
02:30 66.4 °F 65.5 °F 30.09 in Calm     97% 0 in meteobridge W/m2
02:35 66.4 °F 65.5 °F 30.09 in Calm     97% 0 in meteobridge W/m2
02:40 66.4 °F 65.5 °F 30.10 in Calm     97% 0 in meteobridge W/m2
02:45 66.4 °F 65.5 °F 30.10 in Calm     97% 0 in meteobridge W/m2
02:50 66.4 °F 65.5 °F 30.09 in Calm     97% 0 in meteobridge W/m2
02:55 66.6 °F 65.7 °F 30.09 in Calm     97% 0 in meteobridge W/m2
03:00 66.6 °F 65.7 °F 30.09 in Calm     97% 0 in meteobridge W/m2
03:05 66.6 °F 65.7 °F 30.09 in Calm     97% 0 in meteobridge W/m2
03:10 66.6 °F 65.7 °F 30.10 in Calm     97% 0 in meteobridge W/m2
03:15 66.6 °F 65.7 °F 30.10 in Calm     97% 0 in meteobridge W/m2
03:20 66.6 °F 65.3 °F 30.10 in Calm     96% 0 in meteobridge W/m2
03:25 66.4 °F 65.5 °F 30.10 in Calm     97% 0 in meteobridge W/m2
03:30 66.4 °F 65.5 °F 30.09 in Calm     97% 0 in meteobridge W/m2
03:35 66.4 °F 65.5 °F 30.09 in Calm     97% 0 in meteobridge W/m2
03:40 66.4 °F 65.5 °F 30.10 in Calm     97% 0 in meteobridge W/m2
03:45 66.2 °F 65.3 °F 30.09 in Calm     97% 0 in meteobridge W/m2
03:50 66 °F 64.8 °F 30.09 in Calm     96% 0 in meteobridge W/m2
03:55 66 °F 64.8 °F 30.09 in Calm     96% 0 in meteobridge W/m2
04:00 66 °F 64.8 °F 30.09 in Calm     96% 0 in meteobridge W/m2
04:05 65.8 °F 64.6 °F 30.09 in Calm     96% 0 in meteobridge W/m2
04:10 65.8 °F 64.9 °F 30.09 in Calm     97% 0 in meteobridge W/m2
04:15 65.8 °F 64.9 °F 30.10 in Calm     97% 0 in meteobridge W/m2
04:20 65.8 °F 64.9 °F 30.09 in Calm     97% 0 in meteobridge W/m2
04:25 65.7 °F 64.8 °F 30.10 in Calm     97% 0 in meteobridge W/m2
04:30 65.7 °F 64.8 °F 30.10 in Calm     97% 0 in meteobridge W/m2
04:35 65.7 °F 64.8 °F 30.10 in Calm     97% 0 in meteobridge W/m2
04:40 65.5 °F 64.2 °F 30.11 in Calm     96% 0 in meteobridge W/m2
04:45 65.5 °F 64.2 °F 30.11 in Calm     96% 0 in meteobridge W/m2
04:50 65.1 °F 64 °F 30.11 in Calm     96% 0 in meteobridge W/m2
04:55 65.1 °F 64.2 °F 30.11 in Calm     97% 0 in meteobridge W/m2
05:00 65.1 °F 64 °F 30.11 in Calm     96% 0 in meteobridge W/m2
05:05 64.9 °F 64 °F 30.11 in Calm     97% 0 in meteobridge W/m2
05:10 64.9 °F 64 °F 30.10 in Calm     97% 0 in meteobridge W/m2
05:15 64.9 °F 64 °F 30.10 in Calm     97% 0 in meteobridge W/m2
05:20 64.8 °F 63.9 °F 30.10 in Calm     97% 0 in meteobridge W/m2
05:25 64.8 °F 63.9 °F 30.10 in Calm     97% 0 in meteobridge W/m2
05:30 64.8 °F 63.9 °F 30.11 in Calm     97% 0 in meteobridge W/m2
05:35 64.6 °F 63.7 °F 30.11 in Calm     97% 0 in meteobridge W/m2
05:40 64.8 °F 63.9 °F 30.11 in Calm     97% 0 in meteobridge W/m2
05:45 64.8 °F 63.9 °F 30.11 in Calm     97% 0 in meteobridge W/m2
05:50 64.6 °F 63.7 °F 30.11 in Calm     97% 0 in meteobridge W/m2
05:55 64.6 °F 63.7 °F 30.11 in Calm     97% 0 in meteobridge W/m2
06:00 64.4 °F 63.5 °F 30.11 in Calm     97% 0 in meteobridge W/m2
06:05 64.4 °F 63.5 °F 30.11 in Calm     97% 0 in meteobridge W/m2
06:10 64.2 °F 63.3 °F 30.11 in Calm     97% 0 in meteobridge W/m2
06:15 64.2 °F 63.3 °F 30.11 in Calm     97% 0 in meteobridge W/m2
06:20 64 °F 63.1 °F 30.12 in Calm     97% 0 in meteobridge W/m2
06:25 64 °F 63.1 °F 30.12 in Calm     97% 0 in meteobridge W/m2
06:30 64 °F 63.1 °F 30.12 in Calm     97% 0 in meteobridge W/m2
06:35 64 °F 63.1 °F 30.13 in Calm     97% 0 in meteobridge W/m2
06:40 64 °F 63.1 °F 30.13 in Calm     97% 0 in meteobridge W/m2
06:45 63.9 °F 63 °F 30.13 in Calm     97% 0 in meteobridge W/m2
06:50 63.9 °F 63 °F 30.13 in Calm     97% 0 in meteobridge W/m2
06:55 63.9 °F 63 °F 30.13 in Calm     97% 0 in meteobridge W/m2
07:00 63.9 °F 63 °F 30.14 in Calm     97% 0 in meteobridge W/m2
07:05 63.7 °F 62.8 °F 30.14 in Calm     97% 0 in meteobridge W/m2
07:10 63.7 °F 62.8 °F 30.14 in Calm     97% 0 in meteobridge W/m2
07:15 63.7 °F 62.8 °F 30.14 in Calm     97% 0 in meteobridge W/m2
07:20 63.7 °F 62.8 °F 30.14 in Calm     97% 0 in meteobridge W/m2
07:25 63.7 °F 62.8 °F 30.14 in Calm     97% 0 in meteobridge W/m2
07:30 63.5 °F 62.6 °F 30.14 in Calm     97% 0 in meteobridge W/m2
07:35 63.7 °F 62.8 °F 30.14 in Calm     97% 0 in meteobridge W/m2
07:40 63.7 °F 62.8 °F 30.14 in Calm     97% 0 in meteobridge W/m2
07:45 63.7 °F 62.8 °F 30.14 in Calm     97% 0 in meteobridge W/m2
07:50 63.7 °F 63.1 °F 30.14 in Calm     98% 0 in meteobridge W/m2
07:55 63.9 °F 63.3 °F 30.14 in Calm     98% 0 in meteobridge W/m2
08:00 63.9 °F 63.3 °F 30.14 in Calm     98% 0 in meteobridge W/m2
08:05 64 °F 63.5 °F 30.14 in Calm     98% 0 in meteobridge W/m2
08:10 64 °F 63.5 °F 30.14 in Calm     98% 0 in meteobridge W/m2
08:15 64.2 °F 63.7 °F 30.14 in Calm     98% 0 in meteobridge W/m2
08:20 64.2 °F 63.7 °F 30.14 in Calm     98% 0 in meteobridge W/m2
08:25 64.6 °F 64 °F 30.14 in Calm     98% 0 in meteobridge W/m2
08:30 64.8 °F 64.2 °F 30.14 in Calm     98% 0 in meteobridge W/m2
08:35 64.9 °F 64.4 °F 30.14 in Calm     98% 0 in meteobridge W/m2
08:40 65.1 °F 64.6 °F 30.14 in Calm     98% 0 in meteobridge W/m2
08:45 65.5 °F 64.9 °F 30.14 in Calm     98% 0 in meteobridge W/m2
08:50 65.7 °F 65.1 °F 30.14 in Calm     98% 0 in meteobridge W/m2
08:55 65.8 °F 65.3 °F 30.14 in Calm     98% 0 in meteobridge W/m2
09:00 66.4 °F 65.8 °F 30.14 in Calm     98% 0 in meteobridge W/m2
09:05 66.7 °F 66.2 °F 30.14 in Calm     98% 0 in meteobridge W/m2
09:10 67.1 °F 66.6 °F 30.14 in Calm     98% 0 in meteobridge W/m2
09:15 67.5 °F 66.6 °F 30.14 in Calm     97% 0 in meteobridge W/m2
09:20 67.8 °F 67.3 °F 30.13 in Calm     98% 0 in meteobridge W/m2
09:25 68.2 °F 67.3 °F 30.14 in Calm     97% 0 in meteobridge W/m2
09:30 68.5 °F 67.3 °F 30.14 in Calm     96% 0 in meteobridge W/m2
09:35 69.1 °F 67.6 °F 30.13 in Calm     95% 0 in meteobridge W/m2
09:40 69.6 °F 67.8 °F 30.13 in Calm     94% 0 in meteobridge W/m2
09:45 70.2 °F 68 °F 30.13 in Calm     93% 0 in meteobridge W/m2
09:50 70.9 °F 68.4 °F 30.12 in Calm     92% 0 in meteobridge W/m2
09:55 71.2 °F 69.1 °F 30.12 in Calm     93% 0 in meteobridge W/m2
10:00 71.4 °F 68.9 °F 30.12 in Calm     92% 0 in meteobridge W/m2
10:05 72.1 °F 70.3 °F 30.12 in Calm     94% 0 in meteobridge W/m2
10:10 72.7 °F 69.6 °F 30.12 in Calm     90% 0 in meteobridge W/m2
10:15 73 °F 69.3 °F 30.12 in Calm     88% 0 in meteobridge W/m2
10:20 73.8 °F 69.6 °F 30.12 in Calm     87% 0 in meteobridge W/m2
10:25 74.1 °F 70 °F 30.12 in Calm     87% 0 in meteobridge W/m2
10:30 74.7 °F 70.2 °F 30.12 in Calm     86% 0 in meteobridge W/m2
10:35 75 °F 70.9 °F 30.12 in Calm     87% 0 in meteobridge W/m2
10:40 75.2 °F 70.7 °F 30.12 in Calm     86% 0 in meteobridge W/m2
10:45 75.6 °F 69.3 °F 30.12 in Calm     81% 0 in meteobridge W/m2
10:50 75.9 °F 70.3 °F 30.13 in Calm     83% 0 in meteobridge W/m2
10:55 76.3 °F 69.6 °F 30.13 in Calm     80% 0 in meteobridge W/m2
11:00 76.6 °F 68.9 °F 30.13 in Calm   1 mph 77% 0 in meteobridge W/m2
11:05 77.2 °F 69.4 °F 30.14 in Calm     77% 0 in meteobridge W/m2
11:10 77.5 °F 69.4 °F 30.14 in Calm     76% 0 in meteobridge W/m2
11:15 78.1 °F 69.4 °F 30.14 in Calm   3 mph 75% 0 in meteobridge W/m2
11:20 78.8 °F 69.4 °F 30.14 in NE 2 mph 3 mph 73% 0 in meteobridge W/m2
11:25 79.7 °F 69.8 °F 30.14 in Calm   1 mph 72% 0 in meteobridge W/m2
11:30 80.4 °F 69.3 °F 30.14 in Calm     69% 0 in meteobridge W/m2
11:35 81.1 °F 69.1 °F 30.14 in Calm   1 mph 67% 0 in meteobridge W/m2
11:40 82 °F 69.6 °F 30.14 in Calm   3 mph 66% 0 in meteobridge W/m2
11:45 82.6 °F 71.8 °F 30.15 in Calm   1 mph 70% 0 in meteobridge W/m2
11:50 82.9 °F 70.9 °F 30.15 in Calm   3 mph 67% 0 in meteobridge W/m2
11:55 83.1 °F 70.5 °F 30.15 in Calm   3 mph 66% 0 in meteobridge W/m2
12:00 83.1 °F 69.6 °F 30.15 in Calm   1 mph 64% 0 in meteobridge W/m2
12:05 83.3 °F 69.8 °F 30.15 in North 0.9 mph 4 mph 64% 0 in meteobridge W/m2
12:10 83.3 °F 68.9 °F 30.15 in NNW 0.9 mph 2 mph 62% 0 in meteobridge W/m2
12:15 83.5 °F 70.9 °F 30.15 in Calm     66% 0 in meteobridge W/m2
12:20 83.5 °F 70.9 °F 30.15 in Calm     66% 0 in meteobridge W/m2
12:25 83.3 °F 69.8 °F 30.15 in NW 0.9 mph 1 mph 64% 0 in meteobridge W/m2
12:30 83.7 °F 69.8 °F 30.14 in North 0.9 mph 1 mph 63% 0 in meteobridge W/m2
12:35 83.8 °F 70.3 °F 30.14 in Calm     64% 0 in meteobridge W/m2
12:40 84.2 °F 70.2 °F 30.14 in Calm   1 mph 63% 0 in meteobridge W/m2
12:45 84.4 °F 70.3 °F 30.14 in Calm     63% 0 in meteobridge W/m2
12:50 84.6 °F 69.6 °F 30.13 in Calm     61% 0 in meteobridge W/m2
12:55 84.7 °F 69.3 °F 30.13 in NW 0.9 mph 1 mph 60% 0 in meteobridge W/m2
13:00 84.9 °F 68.9 °F 30.13 in Calm     59% 0 in meteobridge W/m2
13:05 85.3 °F 70.3 °F 30.13 in Calm     61% 0 in meteobridge W/m2
13:10 85.6 °F 70.2 °F 30.12 in Calm     60% 0 in meteobridge W/m2
13:15 85.8 °F 70.3 °F 30.12 in Calm   1 mph 60% 0 in meteobridge W/m2
13:20 86.2 °F 70.2 °F 30.12 in Calm   4 mph 59% 0 in meteobridge W/m2
13:25 86.5 °F 70.5 °F 30.13 in NW 0.9 mph 3 mph 59% 0 in meteobridge W/m2
13:30 86.7 °F 70.7 °F 30.12 in NNW 0.9 mph 6 mph 59% 0 in meteobridge W/m2
13:35 87.3 °F 70.2 °F 30.12 in Calm   1 mph 57% 0 in meteobridge W/m2
13:40 87.3 °F 70.2 °F 30.12 in Calm   1 mph 57% 0 in meteobridge W/m2
13:45 87.3 °F 70.2 °F 30.12 in Calm     57% 0 in meteobridge W/m2
13:50 87.3 °F 70.7 °F 30.11 in Calm   2 mph 58% 0 in meteobridge W/m2
13:55 87.1 °F 69.4 °F 30.11 in Calm     56% 0 in meteobridge W/m2
14:00 87.1 °F 70 °F 30.11 in Calm   1 mph 57% 0 in meteobridge W/m2
14:05 87.1 °F 70 °F 30.11 in Calm   2 mph 57% 0 in meteobridge W/m2
14:10 87.1 °F 72 °F 30.11 in Calm     61% 0 in meteobridge W/m2
14:15 86.9 °F 69.8 °F 30.10 in Calm   1 mph 57% 0 in meteobridge W/m2
14:20 86.7 °F 70.2 °F 30.10 in Calm     58% 0 in meteobridge W/m2
14:25 87.1 °F 70.5 °F 30.10 in Calm   3 mph 58% 0 in meteobridge W/m2
14:30 87.3 °F 70.2 °F 30.09 in Calm   3 mph 57% 0 in meteobridge W/m2
14:35 87.6 °F 71.1 °F 30.09 in NNW 0.9 mph 1 mph 58% 0 in meteobridge W/m2
14:40 87.6 °F 71.1 °F 30.09 in WNW 4 mph 6 mph 58% 0 in meteobridge W/m2
14:45 87.4 °F 69.8 °F 30.09 in NW 0.9 mph 1 mph 56% 0 in meteobridge W/m2
14:50 87.3 °F 71.2 °F 30.09 in Calm     59% 0 in meteobridge W/m2
14:55 86.4 °F 71.8 °F 30.08 in Calm     62% 0 in meteobridge W/m2
15:00 85.6 °F 71.6 °F 30.08 in Calm     63% 0 in meteobridge W/m2
15:05 85.3 °F 70.3 °F 30.08 in Calm     61% 0 in meteobridge W/m2
15:10 85.3 °F 69.3 °F 30.08 in Calm     59% 0 in meteobridge W/m2
15:15 85.6 °F 70.2 °F 30.08 in Calm     60% 0 in meteobridge W/m2
15:20 85.8 °F 70.9 °F 30.07 in Calm     61% 0 in meteobridge W/m2
15:25 85.3 °F 73.6 °F 30.07 in Calm     68% 0 in meteobridge W/m2
15:30 84.6 °F 73.2 °F 30.07 in Calm     69% 0 in meteobridge W/m2
15:35 84 °F 72.3 °F 30.07 in Calm     68% 0 in meteobridge W/m2
15:40 84 °F 70 °F 30.06 in Calm     63% 0 in meteobridge W/m2
15:45 84.4 °F 70 °F 30.06 in Calm     62% 0 in meteobridge W/m2
15:50 84.9 °F 70 °F 30.06 in Calm     61% 0 in meteobridge W/m2
15:55 85.6 °F 69.6 °F 30.06 in Calm     59% 0 in meteobridge W/m2
16:00 86.2 °F 70.7 °F 30.06 in Calm     60% 0 in meteobridge W/m2
16:05 86 °F 74.7 °F 30.06 in Calm     69% 0 in meteobridge W/m2
16:10 85.3 °F 73.9 °F 30.05 in Calm     69% 0 in meteobridge W/m2
16:15 84.4 °F 73 °F 30.05 in Calm     69% 0 in meteobridge W/m2
16:20 83.8 °F 72.1 °F 30.05 in Calm     68% 0 in meteobridge W/m2
16:25 83.7 °F 72.3 °F 30.05 in Calm     69% 0 in meteobridge W/m2
16:30 83.7 °F 72.9 °F 30.05 in Calm     70% 0 in meteobridge W/m2
16:35 83.7 °F 72.9 °F 30.05 in Calm     70% 0 in meteobridge W/m2
16:40 83.7 °F 72.9 °F 30.05 in Calm     70% 0 in meteobridge W/m2
16:45 83.7 °F 73.2 °F 30.04 in Calm     71% 0 in meteobridge W/m2
16:50 83.8 °F 71.8 °F 30.04 in Calm     67% 0 in meteobridge W/m2
16:55 84.6 °F 70.2 °F 30.04 in Calm   1 mph 62% 0 in meteobridge W/m2
17:00 85.5 °F 69.4 °F 30.04 in Calm     59% 0 in meteobridge W/m2
17:05 86 °F 71.1 °F 30.04 in Calm     61% 0 in meteobridge W/m2
17:10 86.4 °F 70.9 °F 30.04 in Calm   1 mph 60% 0 in meteobridge W/m2
17:15 86.5 °F 70.5 °F 30.04 in Calm     59% 0 in meteobridge W/m2
17:20 87.1 °F 72 °F 30.04 in Calm     61% 0 in meteobridge W/m2
17:25 87.1 °F 70.5 °F 30.03 in Calm   1 mph 58% 0 in meteobridge W/m2
17:30 87.3 °F 74.1 °F 30.03 in Calm   1 mph 65% 0 in meteobridge W/m2
17:35 86.7 °F 72.7 °F 30.03 in Calm     63% 0 in meteobridge W/m2
17:40 86.5 °F 71.1 °F 30.03 in Calm     60% 0 in meteobridge W/m2
17:45 86.5 °F 71.4 °F 30.03 in Calm     61% 0 in meteobridge W/m2
17:50 86.4 °F 73.6 °F 30.04 in Calm     66% 0 in meteobridge W/m2
17:55 85.8 °F 73.6 °F 30.04 in Calm     67% 0 in meteobridge W/m2
18:00 85.5 °F 72 °F 30.04 in Calm     64% 0 in meteobridge W/m2
18:05 85.3 °F 72.1 °F 30.04 in Calm     65% 0 in meteobridge W/m2
18:10 84.9 °F 71.8 °F 30.04 in Calm     65% 0 in meteobridge W/m2
18:15 84.9 °F 73.2 °F 30.04 in Calm     68% 0 in meteobridge W/m2
18:20 84.6 °F 72.3 °F 30.03 in Calm     67% 0 in meteobridge W/m2
18:25 84.7 °F 72.1 °F 30.04 in Calm   1 mph 66% 0 in meteobridge W/m2
18:30 84.9 °F 72.3 °F 30.04 in Calm     66% 0 in meteobridge W/m2
18:35 85.1 °F 72.5 °F 30.04 in Calm     66% 0 in meteobridge W/m2
18:40 85.3 °F 73 °F 30.04 in Calm     67% 0 in meteobridge W/m2
18:45 85.1 °F 72 °F 30.04 in Calm     65% 0 in meteobridge W/m2
18:50 84.9 °F 71.8 °F 30.04 in Calm     65% 0 in meteobridge W/m2
18:55 84.9 °F 71.8 °F 30.04 in Calm     65% 0 in meteobridge W/m2
19:00 85.3 °F 71.8 °F 30.04 in Calm   1 mph 64% 0 in meteobridge W/m2
19:05 85.3 °F 71.8 °F 30.05 in Calm     64% 0 in meteobridge W/m2
19:10 85.3 °F 72.1 °F 30.05 in Calm   1 mph 65% 0 in meteobridge W/m2
19:15 85.3 °F 72.1 °F 30.05 in Calm     65% 0 in meteobridge W/m2
19:20 84.9 °F 71.8 °F 30.05 in Calm     65% 0 in meteobridge W/m2
19:25 84.7 °F 72.1 °F 30.05 in Calm     66% 0 in meteobridge W/m2
19:30 84.7 °F 72.1 °F 30.05 in Calm     66% 0 in meteobridge W/m2
19:35 84.4 °F 71.8 °F 30.05 in Calm     66% 0 in meteobridge W/m2
19:40 84.2 °F 71.6 °F 30.05 in Calm     66% 0 in meteobridge W/m2
19:45 84 °F 71.4 °F 30.06 in Calm     66% 0 in meteobridge W/m2
19:50 83.8 °F 72.1 °F 30.06 in Calm     68% 0 in meteobridge W/m2
19:55 83.5 °F 71.4 °F 30.06 in Calm     67% 0 in meteobridge W/m2
20:00 83.3 °F 72.1 °F 30.06 in Calm     69% 0 in meteobridge W/m2
20:05 82.9 °F 73 °F 30.07 in Calm     72% 0 in meteobridge W/m2
20:10 82.6 °F 72.7 °F 30.07 in Calm     72% 0 in meteobridge W/m2
20:15 81.9 °F 72.3 °F 30.07 in Calm     73% 0 in meteobridge W/m2
20:20 81.3 °F 72.7 °F 30.07 in Calm     75% 0 in meteobridge W/m2
20:25 81 °F 72 °F 30.08 in Calm     74% 0 in meteobridge W/m2
20:30 80.4 °F 72.1 °F 30.08 in Calm     76% 0 in meteobridge W/m2
20:35 80.1 °F 72.1 °F 30.08 in Calm     77% 0 in meteobridge W/m2
20:40 79.5 °F 72.1 °F 30.08 in Calm     78% 0 in meteobridge W/m2
20:45 79.3 °F 72.3 °F 30.08 in Calm     79% 0 in meteobridge W/m2
20:50 79 °F 72 °F 30.08 in Calm     79% 0 in meteobridge W/m2
20:55 78.4 °F 71.8 °F 30.08 in Calm     80% 0 in meteobridge W/m2
21:00 78.3 °F 71.6 °F 30.08 in Calm     80% 0 in meteobridge W/m2
21:05 78.1 °F 71.8 °F 30.08 in Calm     81% 0 in meteobridge W/m2
21:10 77.7 °F 71.4 °F 30.08 in Calm     81% 0 in meteobridge W/m2
21:15 77.7 °F 71.1 °F 30.08 in Calm     80% 0 in meteobridge W/m2
21:20 77.5 °F 71.2 °F 30.08 in Calm     81% 0 in meteobridge W/m2
21:25 77.5 °F 70.9 °F 30.08 in Calm     80% 0 in meteobridge W/m2
21:30 77.4 °F 71.1 °F 30.08 in Calm     81% 0 in meteobridge W/m2
21:35 77.4 °F 71.4 °F 30.08 in Calm     82% 0 in meteobridge W/m2
21:40 77 °F 71.1 °F 30.08 in Calm     82% 0 in meteobridge W/m2
21:45 76.6 °F 71.1 °F 30.08 in Calm     83% 0 in meteobridge W/m2
21:50 76.5 °F 70.9 °F 30.07 in Calm     83% 0 in meteobridge W/m2
21:55 76.1 °F 70.5 °F 30.07 in Calm     83% 0 in meteobridge W/m2
22:00 75.9 °F 70.7 °F 30.08 in Calm     84% 0 in meteobridge W/m2
22:05 75.7 °F 70.5 °F 30.08 in Calm     84% 0 in meteobridge W/m2
22:10 75.6 °F 70.7 °F 30.08 in Calm     85% 0 in meteobridge W/m2
22:15 75.4 °F 70.5 °F 30.08 in Calm     85% 0 in meteobridge W/m2
22:20 75 °F 70.5 °F 30.09 in Calm     86% 0 in meteobridge W/m2
22:25 74.8 °F 70.3 °F 30.09 in Calm     86% 0 in meteobridge W/m2
22:30 74.7 °F 70.2 °F 30.09 in Calm     86% 0 in meteobridge W/m2
22:35 74.5 °F 70.3 °F 30.09 in Calm     87% 0 in meteobridge W/m2
22:40 74.3 °F 70.2 °F 30.09 in Calm     87% 0 in meteobridge W/m2
22:45 74.1 °F 70 °F 30.09 in Calm     87% 0 in meteobridge W/m2
22:50 74.1 °F 70.3 °F 30.09 in Calm     88% 0 in meteobridge W/m2
22:55 73.9 °F 70.2 °F 30.09 in Calm     88% 0 in meteobridge W/m2
23:00 73.8 °F 70 °F 30.09 in Calm     88% 0 in meteobridge W/m2
23:05 73.8 °F 70 °F 30.10 in Calm     88% 0 in meteobridge W/m2
23:10 73.8 °F 70.3 °F 30.11 in Calm     89% 0 in meteobridge W/m2
23:15 73.8 °F 70.3 °F 30.11 in Calm     89% 0 in meteobridge W/m2
23:20 73.8 °F 70.3 °F 30.11 in Calm     89% 0 in meteobridge W/m2
23:25 73.8 °F 70.3 °F 30.11 in Calm     89% 0 in meteobridge W/m2
23:30 73.8 °F 70.3 °F 30.11 in Calm     89% 0 in meteobridge W/m2
23:35 73.9 °F 70.5 °F 30.12 in Calm     89% 0 in meteobridge W/m2
23:40 73.9 °F 70.2 °F 30.12 in Calm     88% 0 in meteobridge W/m2
23:45 74.1 °F 70.7 °F 30.12 in Calm     89% 0 in meteobridge W/m2
23:50 74.3 °F 70.5 °F 30.11 in Calm     88% 0 in meteobridge W/m2
23:55 74.3 °F 70.5 °F 30.11 in Calm     88% 0 in meteobridge W/m2
EllijayWeather
Compliments of Weather Underground - 2.5 mb